createdAt,value
2018-09-20T00:00:35.206Z,19.80
2018-09-20T00:03:03.430Z,19.80
2018-09-20T00:05:31.669Z,19.70
2018-09-20T00:07:59.937Z,19.70
2018-09-20T00:10:28.199Z,19.60
2018-09-20T00:12:56.520Z,19.60
2018-09-20T00:15:24.753Z,19.50
2018-09-20T00:17:52.994Z,19.60
2018-09-20T00:20:21.262Z,19.60
2018-09-20T00:22:49.483Z,19.50
2018-09-20T00:25:17.731Z,19.50
2018-09-20T00:27:45.976Z,19.50
2018-09-20T00:30:14.251Z,19.50
2018-09-20T00:32:42.483Z,19.50
2018-09-20T00:35:10.744Z,19.50
2018-09-20T00:37:39.009Z,19.50
2018-09-20T00:40:07.257Z,19.60
2018-09-20T00:42:35.547Z,19.60
2018-09-20T00:45:03.785Z,19.60
2018-09-20T00:47:32.055Z,19.70
2018-09-20T00:50:00.309Z,19.70
2018-09-20T00:52:28.518Z,19.70
2018-09-20T00:54:56.769Z,19.70
2018-09-20T00:57:25.011Z,19.80
2018-09-20T00:59:53.254Z,19.80
2018-09-20T01:02:21.490Z,19.80
2018-09-20T01:04:49.701Z,19.80
2018-09-20T01:07:17.951Z,19.90
2018-09-20T01:09:46.223Z,19.90
2018-09-20T01:12:14.455Z,19.90
2018-09-20T01:14:42.702Z,19.80
2018-09-20T01:17:10.981Z,19.80
2018-09-20T01:19:39.264Z,19.80
2018-09-20T01:22:07.512Z,19.80
2018-09-20T01:24:35.785Z,19.80
2018-09-20T01:27:04.025Z,19.70
2018-09-20T01:29:32.255Z,19.70
2018-09-20T01:32:00.494Z,19.70
2018-09-20T01:34:28.724Z,19.60
2018-09-20T01:36:57.015Z,19.60
2018-09-20T01:39:25.275Z,19.60
2018-09-20T01:44:21.547Z,19.50
2018-09-20T01:46:49.777Z,19.40
2018-09-20T01:49:18.072Z,19.30
2018-09-20T01:51:46.299Z,19.30
2018-09-20T01:54:14.523Z,19.20
2018-09-20T01:56:42.768Z,19.10
2018-09-20T01:59:11.012Z,19.00
2018-09-20T02:01:39.249Z,19.10
2018-09-20T02:04:07.652Z,19.10
2018-09-20T02:06:35.886Z,19.10
2018-09-20T02:09:06.061Z,19.10
2018-09-20T02:11:34.317Z,19.00
2018-09-20T02:14:02.743Z,19.00
2018-09-20T02:16:30.976Z,19.00
2018-09-20T02:18:59.179Z,18.90
2018-09-20T02:21:27.420Z,18.90
2018-09-20T02:23:55.796Z,18.90
2018-09-20T02:26:24.946Z,18.90
2018-09-20T02:28:53.181Z,18.90
2018-09-20T02:31:22.013Z,18.90
2018-09-20T02:33:50.292Z,18.90
2018-09-20T02:36:18.529Z,18.90
2018-09-20T02:38:46.941Z,18.80
2018-09-20T02:41:15.193Z,18.80
2018-09-20T02:43:43.418Z,18.80
2018-09-20T02:46:11.709Z,18.70
2018-09-20T02:48:39.954Z,18.70
2018-09-20T02:51:08.182Z,18.70
2018-09-20T02:53:36.415Z,18.70
2018-09-20T02:56:04.697Z,18.70
2018-09-20T02:58:32.953Z,18.70
2018-09-20T03:01:02.169Z,18.60
2018-09-20T03:03:30.389Z,18.60
2018-09-20T03:05:58.608Z,18.50
2018-09-20T03:08:26.839Z,18.50
2018-09-20T03:10:55.074Z,18.40
2018-09-20T03:13:23.354Z,18.40
2018-09-20T03:15:51.554Z,18.30
2018-09-20T03:18:19.798Z,18.30
2018-09-20T03:20:47.985Z,18.20
2018-09-20T03:23:16.205Z,18.10
2018-09-20T03:25:44.398Z,18.10
2018-09-20T03:28:12.581Z,18.00
2018-09-20T03:30:40.847Z,18.00
2018-09-20T03:33:08.978Z,18.00
2018-09-20T03:35:37.184Z,18.00
2018-09-20T03:38:05.373Z,18.00
2018-09-20T03:40:33.568Z,18.00
2018-09-20T03:43:01.773Z,18.00
2018-09-20T03:45:29.998Z,17.90
2018-09-20T03:48:04.906Z,17.90
2018-09-20T03:50:33.134Z,17.90
2018-09-20T03:53:01.360Z,17.90
2018-09-20T03:55:29.636Z,17.90
2018-09-20T03:57:57.861Z,17.80
2018-09-20T04:00:26.045Z,17.80
2018-09-20T04:02:54.257Z,17.80
2018-09-20T04:05:22.466Z,17.80
2018-09-20T04:07:50.657Z,17.70
2018-09-20T04:10:18.867Z,17.80
2018-09-20T04:12:47.074Z,17.70
2018-09-20T04:15:15.260Z,17.70
2018-09-20T04:17:43.536Z,17.70
2018-09-20T04:20:11.797Z,17.70
2018-09-20T04:22:40.033Z,17.60
2018-09-20T04:25:08.269Z,17.60
2018-09-20T04:27:36.526Z,17.60
2018-09-20T04:30:05.070Z,17.60
2018-09-20T04:32:33.305Z,17.60
2018-09-20T04:35:01.568Z,17.60
2018-09-20T04:37:29.817Z,17.60
2018-09-20T04:39:58.119Z,17.60
2018-09-20T04:42:26.343Z,17.60
2018-09-20T04:44:54.573Z,17.70
2018-09-20T04:47:22.842Z,17.70
2018-09-20T04:49:51.376Z,17.70
2018-09-20T04:52:19.578Z,17.70
2018-09-20T04:54:47.800Z,17.70
2018-09-20T04:57:16.003Z,17.80
2018-09-20T04:59:44.248Z,17.70
2018-09-20T05:02:12.822Z,17.70
2018-09-20T05:04:41.012Z,17.70
2018-09-20T05:07:09.209Z,17.70
2018-09-20T05:09:37.620Z,17.80
2018-09-20T05:12:05.706Z,17.70
2018-09-20T05:14:33.960Z,17.70
2018-09-20T05:17:02.166Z,17.70
2018-09-20T05:19:30.392Z,17.70
2018-09-20T05:21:58.612Z,17.60
2018-09-20T05:24:26.893Z,17.60
2018-09-20T05:26:55.125Z,17.70
2018-09-20T05:29:23.374Z,17.70
2018-09-20T05:31:51.596Z,17.70
2018-09-20T05:34:19.801Z,17.70
2018-09-20T05:36:48.014Z,17.80
2018-09-20T05:39:16.372Z,17.80
2018-09-20T05:41:44.578Z,17.90
2018-09-20T05:44:12.801Z,17.90
2018-09-20T05:46:41.769Z,17.90
2018-09-20T05:49:10.177Z,17.90
2018-09-20T05:51:38.440Z,18.00
2018-09-20T05:54:07.075Z,18.00
2018-09-20T05:56:35.733Z,18.00
2018-09-20T05:59:04.093Z,18.00
2018-09-20T06:01:32.396Z,18.10
2018-09-20T06:04:00.613Z,18.10
2018-09-20T06:06:28.844Z,18.20
2018-09-20T06:08:57.150Z,18.20
2018-09-20T06:11:25.362Z,18.20
2018-09-20T06:13:53.601Z,18.30
2018-09-20T06:16:21.854Z,18.30
2018-09-20T06:18:50.135Z,18.40
2018-09-20T06:21:18.425Z,18.40
2018-09-20T06:23:47.103Z,18.50
2018-09-20T06:26:15.510Z,18.60
2018-09-20T06:28:44.029Z,18.70
2018-09-20T06:31:12.313Z,18.80
2018-09-20T06:33:40.534Z,19.00
2018-09-20T06:36:08.852Z,19.10
2018-09-20T06:38:37.174Z,19.30
2018-09-20T06:41:05.480Z,19.50
2018-09-20T06:43:33.694Z,19.60
2018-09-20T06:46:01.914Z,19.60
2018-09-20T06:48:30.121Z,19.70
2018-09-20T06:50:58.425Z,19.80
2018-09-20T06:53:26.808Z,20.00
2018-09-20T06:55:55.140Z,20.10
2018-09-20T06:58:23.796Z,20.30
2018-09-20T07:00:52.040Z,20.50
2018-09-20T07:03:20.276Z,20.70
2018-09-20T07:05:48.494Z,20.90
2018-09-20T07:08:16.736Z,21.30
2018-09-20T07:10:45.015Z,21.50
2018-09-20T07:13:13.224Z,21.50
2018-09-20T07:15:41.477Z,21.50
2018-09-20T07:18:09.702Z,21.70
2018-09-20T07:20:37.955Z,22.20
2018-09-20T07:23:06.211Z,22.30
2018-09-20T07:28:02.389Z,23.20
2018-09-20T07:30:30.583Z,23.30
2018-09-20T07:32:58.812Z,23.40
2018-09-20T07:35:27.041Z,23.20
2018-09-20T07:37:55.256Z,23.80
2018-09-20T07:40:23.500Z,24.00
2018-09-20T07:42:51.709Z,24.90
2018-09-20T07:45:19.901Z,25.10
2018-09-20T07:47:48.095Z,28.70
2018-09-20T07:50:16.304Z,28.90
2018-09-20T07:52:44.478Z,32.10
2018-09-20T07:55:12.689Z,33.30
2018-09-20T07:57:40.913Z,33.80
2018-09-20T08:00:09.177Z,36.00
2018-09-20T08:02:37.385Z,36.30
2018-09-20T08:05:05.606Z,37.80
2018-09-20T08:07:33.798Z,38.40
2018-09-20T08:10:02.379Z,37.80
2018-09-20T08:12:30.838Z,38.10
2018-09-20T08:14:59.017Z,38.20
2018-09-20T08:17:27.802Z,39.00
2018-09-20T08:19:56.027Z,39.40
2018-09-20T08:22:24.253Z,38.40
2018-09-20T08:24:52.457Z,37.30
2018-09-20T08:27:20.660Z,35.50
2018-09-20T08:29:48.882Z,33.80
2018-09-20T08:32:17.107Z,32.10
2018-09-20T08:34:45.320Z,31.40
2018-09-20T08:37:13.579Z,30.90
2018-09-20T08:39:41.748Z,30.50
2018-09-20T08:42:10.021Z,30.00
2018-09-20T08:44:38.215Z,30.00
2018-09-20T08:47:06.442Z,29.40
2018-09-20T08:49:34.813Z,29.50
2018-09-20T08:52:03.058Z,29.60
2018-09-20T08:54:31.872Z,29.70
2018-09-20T08:57:00.173Z,29.60
2018-09-20T08:59:28.406Z,30.20
2018-09-20T09:01:56.605Z,30.60
2018-09-20T09:04:24.895Z,32.20
2018-09-20T09:06:53.065Z,34.70
2018-09-20T09:09:21.268Z,37.10
2018-09-20T09:11:49.583Z,39.20
2018-09-20T09:14:17.906Z,41.30
2018-09-20T09:16:46.192Z,42.60
2018-09-20T09:19:14.399Z,44.30
2018-09-20T09:21:42.602Z,45.50
2018-09-20T09:24:10.833Z,46.40
2018-09-20T09:26:39.113Z,46.10
2018-09-20T09:29:07.323Z,45.90
2018-09-20T09:31:36.318Z,46.00
2018-09-20T09:34:04.606Z,45.40
2018-09-20T09:36:32.803Z,46.10
2018-09-20T09:39:01.013Z,46.60
2018-09-20T09:41:29.261Z,44.00
2018-09-20T09:43:57.472Z,42.80
2018-09-20T09:46:25.705Z,42.70
2018-09-20T09:48:53.905Z,43.70
2018-09-20T09:51:22.106Z,43.70
2018-09-20T09:53:50.374Z,44.00
2018-09-20T09:56:18.594Z,44.60
2018-09-20T09:58:46.834Z,43.10
2018-09-20T10:01:15.137Z,40.90
2018-09-20T10:03:43.359Z,41.00
2018-09-20T10:06:11.660Z,40.90
2018-09-20T10:08:39.937Z,41.70
2018-09-20T10:11:08.156Z,42.10
2018-09-20T10:13:37.195Z,41.90
2018-09-20T10:16:05.389Z,41.30
2018-09-20T10:18:33.585Z,41.30
2018-09-20T10:21:01.782Z,40.60
2018-09-20T10:23:30.012Z,40.80
2018-09-20T10:25:58.233Z,40.50
2018-09-20T10:28:26.408Z,39.70
2018-09-20T10:30:54.615Z,38.40
2018-09-20T10:33:22.786Z,38.30
2018-09-20T10:35:50.994Z,38.50
2018-09-20T10:38:19.196Z,38.10
2018-09-20T10:40:47.379Z,36.90
2018-09-20T10:43:15.625Z,36.90
2018-09-20T10:45:43.858Z,36.70
2018-09-20T10:48:12.080Z,36.30
2018-09-20T10:50:40.403Z,36.20
2018-09-20T10:53:09.189Z,36.00
2018-09-20T10:55:37.433Z,36.00
2018-09-20T10:58:05.701Z,35.80
2018-09-20T11:00:33.913Z,35.50
2018-09-20T11:03:02.177Z,35.10
2018-09-20T11:05:30.333Z,34.60
2018-09-20T11:07:58.590Z,34.50
2018-09-20T11:10:26.884Z,33.90
2018-09-20T11:12:55.069Z,33.60
2018-09-20T11:15:23.324Z,33.80
2018-09-20T11:17:51.706Z,34.10
2018-09-20T11:20:20.931Z,34.20
2018-09-20T11:22:49.194Z,34.50
2018-09-20T11:25:17.465Z,34.40
2018-09-20T11:27:45.682Z,34.10
2018-09-20T11:30:13.927Z,33.60
2018-09-20T11:32:42.784Z,33.30
2018-09-20T11:35:11.017Z,32.60
2018-09-20T11:37:39.571Z,32.40
2018-09-20T11:40:07.853Z,32.20
2018-09-20T11:42:36.095Z,32.40
2018-09-20T11:45:04.427Z,32.70
2018-09-20T11:47:32.668Z,32.80
2018-09-20T11:50:01.496Z,33.00
2018-09-20T11:52:29.750Z,33.10
2018-09-20T11:54:57.963Z,33.20
2018-09-20T11:57:26.189Z,33.20
2018-09-20T11:59:54.409Z,33.10
2018-09-20T12:02:22.656Z,33.30
2018-09-20T12:04:50.857Z,33.30
2018-09-20T12:07:19.083Z,33.00
2018-09-20T12:09:48.459Z,32.80
2018-09-20T12:12:16.673Z,32.90
2018-09-20T12:14:45.179Z,32.90
2018-09-20T12:17:13.378Z,32.60
2018-09-20T12:19:41.636Z,32.70
2018-09-20T12:22:10.053Z,33.00
2018-09-20T12:24:38.305Z,32.40
2018-09-20T12:27:07.133Z,32.20
2018-09-20T12:29:35.429Z,32.60
2018-09-20T12:32:03.695Z,33.00
2018-09-20T12:34:31.956Z,33.30
2018-09-20T12:37:00.197Z,33.00
2018-09-20T12:39:28.479Z,32.90
2018-09-20T12:41:56.786Z,32.70
2018-09-20T12:44:25.017Z,32.70
2018-09-20T12:46:53.265Z,32.70
2018-09-20T12:49:21.700Z,32.90
2018-09-20T12:51:50.416Z,33.00
2018-09-20T12:54:18.709Z,32.90
2018-09-20T12:56:46.941Z,32.70
2018-09-20T12:59:15.227Z,32.80
2018-09-20T13:01:43.463Z,32.90
2018-09-20T13:04:11.994Z,32.90
2018-09-20T13:06:40.227Z,32.60
2018-09-20T13:09:09.551Z,32.70
2018-09-20T13:11:37.791Z,32.80
2018-09-20T13:14:06.027Z,32.80
2018-09-20T13:16:34.278Z,32.90
2018-09-20T13:19:02.533Z,33.00
2018-09-20T13:21:30.785Z,33.00
2018-09-20T13:23:59.027Z,33.00
2018-09-20T13:26:27.359Z,32.70
2018-09-20T13:28:57.375Z,32.70
2018-09-20T13:31:25.608Z,32.70
2018-09-20T13:33:53.914Z,32.50
2018-09-20T13:36:22.167Z,32.70
2018-09-20T13:38:50.432Z,32.70
2018-09-20T13:41:18.682Z,32.80
2018-09-20T13:43:46.955Z,32.90
2018-09-20T13:46:15.518Z,32.90
2018-09-20T13:48:43.757Z,32.80
2018-09-20T13:51:12.046Z,32.50
2018-09-20T13:53:40.294Z,32.40
2018-09-20T13:56:08.602Z,32.30
2018-09-20T13:58:37.521Z,32.20
2018-09-20T14:01:05.805Z,31.70
2018-09-20T14:03:34.120Z,31.60
2018-09-20T14:06:02.359Z,31.60
2018-09-20T14:08:30.594Z,31.60
2018-09-20T14:10:58.779Z,31.50
2018-09-20T14:13:27.011Z,31.40
2018-09-20T14:15:55.742Z,31.40
2018-09-20T14:18:24.303Z,31.60
2018-09-20T14:20:52.919Z,31.70
2018-09-20T14:23:21.149Z,31.90
2018-09-20T14:25:49.386Z,31.90
2018-09-20T14:28:17.643Z,31.90
2018-09-20T14:30:45.900Z,31.70
2018-09-20T14:33:14.125Z,31.60
2018-09-20T14:35:42.388Z,31.60
2018-09-20T14:38:10.629Z,31.40
2018-09-20T14:40:38.898Z,31.40
2018-09-20T14:43:07.230Z,31.20
2018-09-20T14:45:35.465Z,31.10
2018-09-20T14:48:03.770Z,30.90
2018-09-20T14:50:32.011Z,30.70
2018-09-20T14:53:00.224Z,30.60
2018-09-20T14:55:28.500Z,30.70
2018-09-20T14:57:56.986Z,30.70
2018-09-20T15:00:25.689Z,30.60
2018-09-20T15:02:54.609Z,30.60
2018-09-20T15:05:22.886Z,30.60
2018-09-20T15:07:51.193Z,30.40
2018-09-20T15:10:19.515Z,30.30
2018-09-20T15:12:47.833Z,30.20
2018-09-20T15:15:16.195Z,30.10
2018-09-20T15:17:44.448Z,30.00
2018-09-20T15:20:12.661Z,30.00
2018-09-20T15:22:40.905Z,29.90
2018-09-20T15:25:09.377Z,29.90
2018-09-20T15:27:37.603Z,29.70
2018-09-20T15:30:06.328Z,29.70
2018-09-20T15:32:34.620Z,29.50
2018-09-20T15:35:02.886Z,29.50
2018-09-20T15:37:31.087Z,29.30
2018-09-20T15:39:59.426Z,29.30
2018-09-20T15:42:27.641Z,29.20
2018-09-20T15:44:55.998Z,29.00
2018-09-20T15:47:24.270Z,28.90
2018-09-20T15:49:52.509Z,28.80
2018-09-20T15:52:20.742Z,28.80
2018-09-20T15:54:48.959Z,28.80
2018-09-20T15:57:17.209Z,28.90
2018-09-20T15:59:45.442Z,28.90
2018-09-20T16:02:13.721Z,28.90
2018-09-20T16:04:42.095Z,28.90
2018-09-20T16:07:10.455Z,28.90
2018-09-20T16:09:38.700Z,28.80
2018-09-20T16:12:06.987Z,28.80
2018-09-20T16:14:35.266Z,28.70
2018-09-20T16:17:03.491Z,28.50
2018-09-20T16:19:31.704Z,28.40
2018-09-20T16:21:59.928Z,28.20
2018-09-20T16:24:28.161Z,28.10
2018-09-20T16:26:57.172Z,28.00
2018-09-20T16:29:39.181Z,27.80
2018-09-20T16:32:21.691Z,27.70
2018-09-20T16:35:11.947Z,27.60
2018-09-20T16:38:04.282Z,27.60
2018-09-20T16:40:35.355Z,27.50
2018-09-20T16:43:03.562Z,27.30
2018-09-20T16:45:32.208Z,27.20
2018-09-20T16:48:00.503Z,27.20
2018-09-20T16:50:28.781Z,27.10
2018-09-20T16:52:57.048Z,27.00
2018-09-20T16:55:25.290Z,26.90
2018-09-20T16:57:53.564Z,26.80
2018-09-20T17:00:21.861Z,26.70
2018-09-20T17:02:50.118Z,26.60
2018-09-20T17:05:18.425Z,26.50
2018-09-20T17:07:46.610Z,26.40
2018-09-20T17:10:14.840Z,26.30
2018-09-20T17:13:14.708Z,26.20
2018-09-20T17:15:42.907Z,26.00
2018-09-20T17:18:11.125Z,25.90
2018-09-20T17:20:39.461Z,25.80
2018-09-20T17:23:07.722Z,25.70
2018-09-20T17:25:36.127Z,25.60
2018-09-20T17:28:04.454Z,25.60
2018-09-20T17:30:32.763Z,25.50
2018-09-20T17:33:01.012Z,25.30
2018-09-20T17:35:29.699Z,25.10
2018-09-20T17:37:59.080Z,24.90
2018-09-20T17:40:28.533Z,24.90
2018-09-20T17:42:59.721Z,24.80
2018-09-20T17:45:28.209Z,24.70
2018-09-20T17:47:56.382Z,24.40
2018-09-20T17:50:24.699Z,24.30
2018-09-20T17:52:53.550Z,24.10
2018-09-20T17:55:22.291Z,24.20
2018-09-20T17:57:50.995Z,24.10
2018-09-20T18:00:21.731Z,24.00
2018-09-20T18:02:49.956Z,23.90
2018-09-20T18:05:18.550Z,23.80
2018-09-20T18:07:46.760Z,23.70
2018-09-20T18:10:15.011Z,23.70
2018-09-20T18:12:43.437Z,23.60
2018-09-20T18:15:11.722Z,23.50
2018-09-20T18:17:40.011Z,23.50
2018-09-20T18:20:08.242Z,23.50
2018-09-20T18:22:36.479Z,23.40
2018-09-20T18:25:04.729Z,23.40
2018-09-20T18:27:33.031Z,23.30
2018-09-20T18:30:01.424Z,23.20
2018-09-20T18:32:29.669Z,23.20
2018-09-20T18:34:57.934Z,23.00
2018-09-20T18:37:26.197Z,23.00
2018-09-20T18:39:54.438Z,23.00
2018-09-20T18:42:22.678Z,23.10
2018-09-20T18:44:50.929Z,23.10
2018-09-20T18:47:19.158Z,23.20
2018-09-20T18:49:47.404Z,23.20
2018-09-20T18:52:15.658Z,23.20
2018-09-20T18:54:43.867Z,23.20
2018-09-20T18:57:12.211Z,23.20
2018-09-20T18:59:40.492Z,23.20
2018-09-20T19:02:08.794Z,23.20
2018-09-20T19:04:37.050Z,23.10
2018-09-20T19:07:05.393Z,23.10
2018-09-20T19:09:33.728Z,23.10
2018-09-20T19:12:01.967Z,23.10
2018-09-20T19:14:30.219Z,23.10
2018-09-20T19:16:58.479Z,23.10
2018-09-20T19:19:26.751Z,23.10
2018-09-20T19:21:54.965Z,23.10
2018-09-20T19:24:23.196Z,23.10
2018-09-20T19:26:51.555Z,23.10
2018-09-20T19:29:19.775Z,23.10
2018-09-20T19:31:48.026Z,23.10
2018-09-20T19:34:16.303Z,23.10
2018-09-20T19:36:44.641Z,23.10
2018-09-20T19:39:13.096Z,23.10
2018-09-20T19:41:41.464Z,23.00
2018-09-20T19:44:09.776Z,23.00
2018-09-20T19:46:38.053Z,22.90
2018-09-20T19:49:06.325Z,22.90
2018-09-20T19:51:34.533Z,22.80
2018-09-20T19:54:02.767Z,22.80
2018-09-20T19:56:31.034Z,22.70
2018-09-20T19:58:59.258Z,22.50
2018-09-20T20:01:27.468Z,22.50
2018-09-20T22:02:58.764Z,21.50
2018-09-20T22:05:27.013Z,21.50
2018-09-20T22:07:55.217Z,21.50
2018-09-20T22:10:23.420Z,21.50
2018-09-20T22:12:51.681Z,21.50
2018-09-20T22:15:24.114Z,21.60
2018-09-20T22:17:52.477Z,21.60
2018-09-20T22:20:21.150Z,21.60
2018-09-20T22:22:49.415Z,21.60
2018-09-20T22:25:17.635Z,21.60
2018-09-20T22:27:45.862Z,21.60
2018-09-20T22:30:14.419Z,21.70
2018-09-20T22:32:42.649Z,21.60
2018-09-20T22:35:10.900Z,21.70
2018-09-20T22:37:39.177Z,21.70
2018-09-20T22:40:07.411Z,21.80
2018-09-20T22:42:35.624Z,21.70
2018-09-20T22:45:04.601Z,21.80
2018-09-20T22:47:33.802Z,21.80
2018-09-20T22:50:02.080Z,21.80
2018-09-20T22:52:30.282Z,21.80
2018-09-20T22:54:58.533Z,21.80
2018-09-20T22:57:26.769Z,21.80
2018-09-20T22:59:54.974Z,21.80
2018-09-20T23:02:23.265Z,21.80
2018-09-20T23:04:51.465Z,21.80
2018-09-20T23:07:19.690Z,21.80
2018-09-20T23:09:47.900Z,21.80
2018-09-20T23:12:16.121Z,21.70
2018-09-20T23:14:44.385Z,21.70
2018-09-20T23:17:12.604Z,21.70
2018-09-20T23:19:40.835Z,21.60
2018-09-20T23:22:09.041Z,21.60
2018-09-20T23:24:37.268Z,21.60
2018-09-20T23:27:05.485Z,21.50
2018-09-20T23:29:33.741Z,21.50
2018-09-20T23:32:01.966Z,21.50
2018-09-20T23:34:30.189Z,21.40
2018-09-20T23:36:58.425Z,21.40
2018-09-20T23:39:27.043Z,21.50
2018-09-20T23:41:55.293Z,21.50
2018-09-20T23:44:23.543Z,21.40
2018-09-20T23:46:51.773Z,21.40
2018-09-20T23:49:19.991Z,21.40
2018-09-20T23:51:48.213Z,21.30
2018-09-20T23:54:16.440Z,21.30
2018-09-20T23:56:44.741Z,21.30
2018-09-20T23:59:13.059Z,21.20
